This is the latest recevied weather packets stored in our database for station/object AC5CM. If no packets are shown the sender has not sent any weather packets the latest 10 day(s).
| Time | Temp. | Humidity | Pressure | Rain* | Wind** | Luminosity | Snow |
|---|---|---|---|---|---|---|---|
| 1778191815 | 26.67° C | 64% | 1013.8 hPa | 0 mm | - | - | - |
| 1778191512 | 26.11° C | 65% | 1013.9 hPa | 0 mm | - | - | - |
| 1778191209 | 26.67° C | 64% | 1013.9 hPa | 0 mm | - | - | - |
| 1778190905 | 26.67° C | 66% | 1014 hPa | 0 mm | - | - | - |
| 1778190603 | 26.67° C | 65% | 1014.2 hPa | 0 mm | - | - | - |
| 1778190300 | 26.67° C | 64% | 1014.2 hPa | 0 mm | - | - | - |
| 1778189995 | 27.78° C | 61% | 1014.1 hPa | 0 mm | - | - | - |
| 1778189692 | 27.22° C | 63% | 1014.1 hPa | 0 mm | - | - | - |
| 1778189389 | 27.78° C | 62% | 1014.1 hPa | 0 mm | - | - | - |
| 1778189084 | 27.22° C | 62% | 1014.2 hPa | 0 mm | - | - | - |
| 1778188782 | 27.22° C | 64% | 1014.1 hPa | 0 mm | - | - | - |
| 1778188478 | 27.78° C | 61% | 1014.1 hPa | 0 mm | - | - | - |
| 1778188175 | 27.22° C | 62% | 1014.2 hPa | 0 mm | - | - | - |
| 1778187872 | 27.78° C | 61% | 1014.3 hPa | 0 mm | - | - | - |
| 1778187569 | 27.22° C | 63% | 1014.3 hPa | 0 mm | - | - | - |
| 1778187266 | 26.67° C | 63% | 1014.4 hPa | 0 mm | - | - | - |
| 1778186962 | 26.67° C | 63% | 1014.6 hPa | 0 mm | - | - | - |
| 1778186658 | 26.67° C | 65% | 1014.7 hPa | 0 mm | - | - | - |
| 1778186356 | 26.11° C | 65% | 1014.6 hPa | 0 mm | - | - | - |
| 1778186054 | 26.11° C | 65% | 1014.8 hPa | 0 mm | - | - | - |
| 1778185750 | 26.11° C | 65% | 1014.9 hPa | 0 mm | - | - | - |
| 1778185447 | 26.67° C | 62% | 1014.8 hPa | 0 mm | - | - | - |
| 1778185142 | 26.67° C | 62% | 1014.8 hPa | 0 mm | - | - | - |
| 1778184838 | 27.22° C | 61% | 1015 hPa | 0 mm | - | - | - |
| 1778184534 | 26.11° C | 65% | 1015 hPa | 0 mm | - | - | - |
* Rain latest hour (hover to see other rain measurements)
** Current wind speed in m/s (hover to see current wind gust speed)